Lake City, AR (72437)

5:45 PM CDT on August 01, 2014 (GMT -0500)
Jonesboro Municipal (KJBR) Elev 262 ft | 35.83 °N, 90.65 °W | Change Station

Current weather conditions updated 52 minutes ago

Mostly Cloudy
Mostly Cloudy
82 °F
Feels Like 84 °F
N
6
Wind Variable Wind from ENE

Tomorrow is forecast to be Warmer than today.

Today
High -- | Low -- °F
--% Chance of Precip.
Yesterday
High -- | Low -- °F
Precip. -- in
6:09 AM 8:06 PM
Waxing Crescent, 30% visible
Pressure 30.03 in
Visibility 10.0 miles
Clouds Scattered Clouds 4200 ft
Mostly Cloudy 10000 ft
Heat Index 84 °F
Dew Point 64 °F
Humidity 54%
Rainfall 0.00 in
Snow Depth Not available.
UV 2 out of 12
Pollen 6.60 out of 12
Air Quality Not available.
Flu Activity Not available.
METAR KJBR 012153Z AUTO 07005KT 10SM SCT042 BKN100 28/18 A3003

More Conditions Fewer Conditions

Pressure 30.03 in
Visibility 10.0 miles
Clouds Scattered Clouds 4200 ft
Mostly Cloudy 10000 ft
Heat Index 84 °F
Dew Point 64 °F
Humidity 54%
Rainfall 0.00 in
Snow Depth Not available.
UV 2 out of 12
Pollen 6.60 out of 12
Air Quality Not available.
Flu Activity Not available.
METAR KJBR 012153Z AUTO 07005KT 10SM SCT042 BKN100 28/18 A3003

More Conditions Fewer Conditions

10-Day Weather Forecast

Almanac

Astronomy

Aug. 01, 2014 Rise Set
Actual Time 6:09 AM CDT 8:06 PM CDT
Civil Twilight 5:41 AM CDT 8:34 PM CDT
Nautical Twilight 5:07 AM CDT 9:08 PM CDT
Astronomical Twilight 4:30 AM CDT 9:44 PM CDT
Moon 11:21 AM CDT 11:03 PM CDT
Length of Visible Light 14h 52m
Length of Day
13h 56m
Tomorrow will be 1m 42s shorter.
Waxing Crescent, 30% of the Moon is Illuminated
Today
Waxing Crescent
Aug 3
First Quarter
Aug 10
Full
Aug 17
Last Quarter
Aug 25
New

Today's Extremes

State Highs State Lows

Community

WunderPhotos

Upload Photos

1,739,736 photos uploaded!

Nearby

Snow Depth

Station Depth Elevation
No new snow has been reported.

Earthquake Activity

City Distance Mag. Time & Date
No recent earthquake activity has been reported nearby.
Minimum magnitude displayed is 2.5.

Coastal Water Temperatures

Place Temperature
No Stations Reporting

Nearby Weather Stations

Station Location Temp. Heat Index Dew Point Humidity Wind Precip. Elev Updated Type
MesoWest BETHEL , Brookland, AR 81 °F 79 °F - - North  at  - 0.00 in / hr 288 ft 4:50 PM CDT MADIS
William White Subdivision, Paragould, AR 81.7 °F 85 °F 69 °F 66% North  at  0.4 mph 0.00 in / hr 331 ft 5:45 PM CDT Rapid Fire
MesoWest JNSBRO , Jonesboro, AR 87 °F 84 °F - - North  at  - 0.00 in / hr 285 ft 4:50 PM CDT MADIS
MesoWest HARRIS , Harrisburg, AR 80 °F 78 °F - - North  at  - 0.00 in / hr 250 ft 1:50 PM CDT MADIS
MesoWest MARDUK , Marmaduke, AR 87 °F 84 °F - - North  at  - 0.00 in / hr 272 ft 4:45 PM CDT MADIS

Show More Stations Show Fewer Stations